sensor_id;sensor_type;location;lat;lon;timestamp;P1;durP1;ratioP1;P2;durP2;ratioP2
61675;SDS011;47574;52.090;5.244;2023-07-13T00:00:54;12.0;;;2.6;;
61675;SDS011;47574;52.090;5.244;2023-07-13T00:02:30;8.0;;;2.1;;
61675;SDS011;47574;52.090;5.244;2023-07-13T00:05:42;10.0;;;2.21;;
61675;SDS011;47574;52.090;5.244;2023-07-13T00:07:18;8.0;;;2.1;;
61675;SDS011;47574;52.090;5.244;2023-07-13T00:08:54;8.9;;;2.21;;
61675;SDS011;47574;52.090;5.244;2023-07-13T00:10:30;7.9;;;2.21;;
61675;SDS011;47574;52.090;5.244;2023-07-13T00:14:04;10.21;;;2.5;;
61675;SDS011;47574;52.090;5.244;2023-07-13T00:15:40;9.71;;;2.4;;
61675;SDS011;47574;52.090;5.244;2023-07-13T00:17:16;11.9;;;2.5;;
61675;SDS011;47574;52.090;5.244;2023-07-13T00:18:52;11.0;;;2.31;;
61675;SDS011;47574;52.090;5.244;2023-07-13T00:22:04;10.9;;;2.1;;
61675;SDS011;47574;52.090;5.244;2023-07-13T00:23:40;8.31;;;2.0;;
61675;SDS011;47574;52.090;5.244;2023-07-13T00:25:18;7.0;;;2.21;;
61675;SDS011;47574;52.090;5.244;2023-07-13T00:28:31;7.7;;;2.21;;
61675;SDS011;47574;52.090;5.244;2023-07-13T00:30:08;5.9;;;2.31;;
61675;SDS011;47574;52.090;5.244;2023-07-13T00:31:46;7.7;;;2.5;;
61675;SDS011;47574;52.090;5.244;2023-07-13T00:34:59;7.2;;;2.4;;
61675;SDS011;47574;52.090;5.244;2023-07-13T00:36:35;10.8;;;2.7;;
61675;SDS011;47574;52.090;5.244;2023-07-13T00:38:11;8.31;;;2.1;;
61675;SDS011;47574;52.090;5.244;2023-07-13T00:39:47;8.4;;;2.5;;
61675;SDS011;47574;52.090;5.244;2023-07-13T00:42:59;7.2;;;2.31;;
61675;SDS011;47574;52.090;5.244;2023-07-13T00:44:35;8.31;;;2.7;;
61675;SDS011;47574;52.090;5.244;2023-07-13T00:46:13;9.5;;;2.9;;
61675;SDS011;47574;52.090;5.244;2023-07-13T00:49:36;9.21;;;2.7;;
61675;SDS011;47574;52.090;5.244;2023-07-13T00:51:12;10.4;;;3.2;;
61675;SDS011;47574;52.090;5.244;2023-07-13T00:52:52;14.0;;;3.3;;
61675;SDS011;47574;52.090;5.244;2023-07-13T00:54:31;11.1;;;2.8;;
61675;SDS011;47574;52.090;5.244;2023-07-13T00:57:51;9.81;;;2.9;;
61675;SDS011;47574;52.090;5.244;2023-07-13T00:59:27;7.5;;;2.5;;
61675;SDS011;47574;52.090;5.244;2023-07-13T01:01:04;9.5;;;2.5;;
61675;SDS011;47574;52.090;5.244;2023-07-13T01:04:23;8.81;;;2.7;;
61675;SDS011;47574;52.090;5.244;2023-07-13T01:06:00;7.2;;;2.31;;
61675;SDS011;47574;52.090;5.244;2023-07-13T01:07:36;8.1;;;2.4;;
61675;SDS011;47574;52.090;5.244;2023-07-13T01:09:13;7.0;;;2.0;;
61675;SDS011;47574;52.090;5.244;2023-07-13T01:12:28;8.71;;;2.31;;
61675;SDS011;47574;52.090;5.244;2023-07-13T01:14:05;7.7;;;2.21;;
61675;SDS011;47574;52.090;5.244;2023-07-13T01:15:41;5.9;;;1.9;;
61675;SDS011;47574;52.090;5.244;2023-07-13T01:18:56;9.31;;;2.21;;
61675;SDS011;47574;52.090;5.244;2023-07-13T01:20:33;6.8;;;1.8;;
61675;SDS011;47574;52.090;5.244;2023-07-13T01:22:12;8.9;;;2.21;;
61675;SDS011;47574;52.090;5.244;2023-07-13T01:23:50;8.81;;;2.4;;
61675;SDS011;47574;52.090;5.244;2023-07-13T01:27:04;6.3;;;2.0;;
61675;SDS011;47574;52.090;5.244;2023-07-13T01:28:42;7.4;;;1.9;;
61675;SDS011;47574;52.090;5.244;2023-07-13T01:30:19;7.5;;;2.31;;
61675;SDS011;47574;52.090;5.244;2023-07-13T01:33:31;8.0;;;2.4;;
61675;SDS011;47574;52.090;5.244;2023-07-13T01:35:07;8.9;;;1.9;;
61675;SDS011;47574;52.090;5.244;2023-07-13T01:36:43;8.4;;;2.21;;
61675;SDS011;47574;52.090;5.244;2023-07-13T01:38:20;8.4;;;2.21;;
61675;SDS011;47574;52.090;5.244;2023-07-13T01:41:35;6.5;;;2.21;;
61675;SDS011;47574;52.090;5.244;2023-07-13T01:43:11;8.1;;;2.5;;
61675;SDS011;47574;52.090;5.244;2023-07-13T01:44:48;7.6;;;2.21;;
61675;SDS011;47574;52.090;5.244;2023-07-13T01:48:00;8.71;;;2.31;;
61675;SDS011;47574;52.090;5.244;2023-07-13T01:49:36;11.0;;;2.5;;
61675;SDS011;47574;52.090;5.244;2023-07-13T01:51:12;11.0;;;2.21;;
61675;SDS011;47574;52.090;5.244;2023-07-13T01:54:25;7.8;;;2.5;;
61675;SDS011;47574;52.090;5.244;2023-07-13T01:56:01;7.2;;;2.21;;
61675;SDS011;47574;52.090;5.244;2023-07-13T01:57:37;7.1;;;2.21;;
61675;SDS011;47574;52.090;5.244;2023-07-13T02:00:49;7.0;;;2.6;;
61675;SDS011;47574;52.090;5.244;2023-07-13T02:02:27;9.21;;;2.31;;
61675;SDS011;47574;52.090;5.244;2023-07-13T02:04:04;11.0;;;2.4;;
61675;SDS011;47574;52.090;5.244;2023-07-13T02:05:40;8.1;;;2.31;;
61675;SDS011;47574;52.090;5.244;2023-07-13T02:08:52;7.4;;;2.1;;
61675;SDS011;47574;52.090;5.244;2023-07-13T02:10:29;9.1;;;2.1;;
61675;SDS011;47574;52.090;5.244;2023-07-13T02:12:06;8.6;;;2.31;;
61675;SDS011;47574;52.090;5.244;2023-07-13T02:16:55;8.2;;;2.21;;
61675;SDS011;47574;52.090;5.244;2023-07-13T02:18:31;8.5;;;2.4;;
61675;SDS011;47574;52.090;5.244;2023-07-13T02:21:44;7.2;;;2.21;;
61675;SDS011;47574;52.090;5.244;2023-07-13T02:23:20;8.71;;;2.4;;
61675;SDS011;47574;52.090;5.244;2023-07-13T02:24:56;8.4;;;2.4;;
61675;SDS011;47574;52.090;5.244;2023-07-13T02:26:32;8.6;;;2.8;;
61675;SDS011;47574;52.090;5.244;2023-07-13T02:29:46;9.1;;;2.8;;
61675;SDS011;47574;52.090;5.244;2023-07-13T02:31:22;9.21;;;2.6;;
61675;SDS011;47574;52.090;5.244;2023-07-13T02:32:58;10.21;;;2.6;;
61675;SDS011;47574;52.090;5.244;2023-07-13T02:36:11;13.0;;;2.8;;
61675;SDS011;47574;52.090;5.244;2023-07-13T02:37:48;9.81;;;3.0;;
61675;SDS011;47574;52.090;5.244;2023-07-13T02:39:24;12.9;;;2.7;;
61675;SDS011;47574;52.090;5.244;2023-07-13T02:42:37;9.1;;;2.5;;
61675;SDS011;47574;52.090;5.244;2023-07-13T02:44:13;6.8;;;2.5;;
61675;SDS011;47574;52.090;5.244;2023-07-13T02:45:50;9.6;;;3.0;;
61675;SDS011;47574;52.090;5.244;2023-07-13T02:47:26;9.31;;;2.8;;
61675;SDS011;47574;52.090;5.244;2023-07-13T02:50:39;9.5;;;3.0;;
61675;SDS011;47574;52.090;5.244;2023-07-13T02:52:16;12.7;;;3.4;;
61675;SDS011;47574;52.090;5.244;2023-07-13T02:53:52;11.3;;;2.9;;
61675;SDS011;47574;52.090;5.244;2023-07-13T02:57:04;9.71;;;3.1;;
61675;SDS011;47574;52.090;5.244;2023-07-13T02:58:41;9.71;;;3.1;;
61675;SDS011;47574;52.090;5.244;2023-07-13T03:00:17;12.6;;;2.8;;
61675;SDS011;47574;52.090;5.244;2023-07-13T03:03:30;11.8;;;2.8;;
61675;SDS011;47574;52.090;5.244;2023-07-13T03:05:06;11.2;;;3.2;;
61675;SDS011;47574;52.090;5.244;2023-07-13T03:06:43;11.8;;;3.1;;
61675;SDS011;47574;52.090;5.244;2023-07-13T03:08:19;7.5;;;2.8;;
61675;SDS011;47574;52.090;5.244;2023-07-13T03:11:32;11.8;;;2.8;;
61675;SDS011;47574;52.090;5.244;2023-07-13T03:13:08;10.3;;;2.9;;
61675;SDS011;47574;52.090;5.244;2023-07-13T03:14:45;11.2;;;2.6;;
61675;SDS011;47574;52.090;5.244;2023-07-13T03:17:58;13.9;;;3.2;;
61675;SDS011;47574;52.090;5.244;2023-07-13T03:19:34;12.4;;;3.3;;
61675;SDS011;47574;52.090;5.244;2023-07-13T03:21:10;11.5;;;3.1;;
61675;SDS011;47574;52.090;5.244;2023-07-13T03:24:22;8.2;;;2.4;;
61675;SDS011;47574;52.090;5.244;2023-07-13T03:26:02;11.1;;;3.1;;
61675;SDS011;47574;52.090;5.244;2023-07-13T03:27:41;9.81;;;2.5;;
61675;SDS011;47574;52.090;5.244;2023-07-13T03:29:17;11.2;;;2.6;;
61675;SDS011;47574;52.090;5.244;2023-07-13T03:32:35;8.5;;;2.7;;
61675;SDS011;47574;52.090;5.244;2023-07-13T03:34:11;11.4;;;3.1;;
61675;SDS011;47574;52.090;5.244;2023-07-13T03:35:47;10.4;;;3.1;;
61675;SDS011;47574;52.090;5.244;2023-07-13T03:39:00;13.3;;;3.4;;
61675;SDS011;47574;52.090;5.244;2023-07-13T03:40:38;8.4;;;2.8;;
61675;SDS011;47574;52.090;5.244;2023-07-13T03:42:14;9.81;;;2.9;;
61675;SDS011;47574;52.090;5.244;2023-07-13T03:43:50;9.5;;;2.8;;
61675;SDS011;47574;52.090;5.244;2023-07-13T03:47:04;11.3;;;3.0;;
61675;SDS011;47574;52.090;5.244;2023-07-13T03:48:39;9.71;;;3.0;;
61675;SDS011;47574;52.090;5.244;2023-07-13T03:50:16;11.3;;;3.2;;
61675;SDS011;47574;52.090;5.244;2023-07-13T03:53:28;9.31;;;2.7;;
61675;SDS011;47574;52.090;5.244;2023-07-13T03:55:04;11.5;;;3.4;;
61675;SDS011;47574;52.090;5.244;2023-07-13T03:56:41;12.3;;;3.3;;
61675;SDS011;47574;52.090;5.244;2023-07-13T04:00:13;11.9;;;3.0;;
61675;SDS011;47574;52.090;5.244;2023-07-13T04:01:50;12.6;;;3.1;;
61675;SDS011;47574;52.090;5.244;2023-07-13T04:03:26;11.7;;;3.5;;
61675;SDS011;47574;52.090;5.244;2023-07-13T04:05:03;14.1;;;3.1;;
61675;SDS011;47574;52.090;5.244;2023-07-13T04:08:16;13.9;;;3.0;;
61675;SDS011;47574;52.090;5.244;2023-07-13T04:09:52;10.9;;;3.1;;
61675;SDS011;47574;52.090;5.244;2023-07-13T04:11:29;12.6;;;3.6;;
61675;SDS011;47574;52.090;5.244;2023-07-13T04:13:08;9.31;;;3.1;;
61675;SDS011;47574;52.090;5.244;2023-07-13T04:16:20;13.9;;;3.9;;
61675;SDS011;47574;52.090;5.244;2023-07-13T04:17:57;9.1;;;3.5;;
61675;SDS011;47574;52.090;5.244;2023-07-13T04:19:34;9.1;;;3.5;;
61675;SDS011;47574;52.090;5.244;2023-07-13T04:22:47;10.5;;;3.5;;
61675;SDS011;47574;52.090;5.244;2023-07-13T04:24:24;11.5;;;3.7;;
61675;SDS011;47574;52.090;5.244;2023-07-13T04:26:00;12.3;;;3.5;;
61675;SDS011;47574;52.090;5.244;2023-07-13T04:29:12;12.2;;;3.4;;
61675;SDS011;47574;52.090;5.244;2023-07-13T04:30:48;13.1;;;3.9;;
61675;SDS011;47574;52.090;5.244;2023-07-13T04:32:25;13.0;;;4.2;;
61675;SDS011;47574;52.090;5.244;2023-07-13T04:35:38;10.0;;;3.7;;
61675;SDS011;47574;52.090;5.244;2023-07-13T04:37:15;13.3;;;4.1;;
61675;SDS011;47574;52.090;5.244;2023-07-13T04:38:51;10.7;;;3.9;;
61675;SDS011;47574;52.090;5.244;2023-07-13T04:40:27;13.2;;;3.8;;
61675;SDS011;47574;52.090;5.244;2023-07-13T04:43:41;16.11;;;4.2;;
61675;SDS011;47574;52.090;5.244;2023-07-13T04:45:18;14.6;;;3.8;;
61675;SDS011;47574;52.090;5.244;2023-07-13T04:46:53;11.8;;;3.8;;
61675;SDS011;47574;52.090;5.244;2023-07-13T04:50:06;12.6;;;4.0;;
61675;SDS011;47574;52.090;5.244;2023-07-13T04:51:44;12.2;;;3.9;;
61675;SDS011;47574;52.090;5.244;2023-07-13T04:53:20;13.1;;;4.0;;
61675;SDS011;47574;52.090;5.244;2023-07-13T04:56:32;18.41;;;4.41;;
61675;SDS011;47574;52.090;5.244;2023-07-13T04:58:08;15.5;;;4.2;;
61675;SDS011;47574;52.090;5.244;2023-07-13T04:59:45;12.2;;;4.2;;
61675;SDS011;47574;52.090;5.244;2023-07-13T05:01:21;11.5;;;4.0;;
61675;SDS011;47574;52.090;5.244;2023-07-13T05:04:34;15.0;;;4.3;;
61675;SDS011;47574;52.090;5.244;2023-07-13T05:06:10;12.1;;;4.3;;
61675;SDS011;47574;52.090;5.244;2023-07-13T05:07:46;14.8;;;4.61;;
61675;SDS011;47574;52.090;5.244;2023-07-13T05:10:59;16.3;;;4.61;;
61675;SDS011;47574;52.090;5.244;2023-07-13T05:12:36;12.1;;;4.7;;
61675;SDS011;47574;52.090;5.244;2023-07-13T05:14:12;16.4;;;4.61;;
61675;SDS011;47574;52.090;5.244;2023-07-13T05:17:32;18.0;;;4.7;;
61675;SDS011;47574;52.090;5.244;2023-07-13T05:19:09;12.2;;;4.5;;
61675;SDS011;47574;52.090;5.244;2023-07-13T05:20:46;12.9;;;4.2;;
61675;SDS011;47574;52.090;5.244;2023-07-13T05:22:22;14.5;;;5.2;;
61675;SDS011;47574;52.090;5.244;2023-07-13T05:25:35;13.3;;;4.61;;
61675;SDS011;47574;52.090;5.244;2023-07-13T05:27:11;15.6;;;4.0;;
61675;SDS011;47574;52.090;5.244;2023-07-13T05:28:47;14.6;;;5.2;;
61675;SDS011;47574;52.090;5.244;2023-07-13T05:31:59;17.41;;;5.11;;
61675;SDS011;47574;52.090;5.244;2023-07-13T05:33:36;13.2;;;4.8;;
61675;SDS011;47574;52.090;5.244;2023-07-13T05:35:12;16.8;;;5.11;;
61675;SDS011;47574;52.090;5.244;2023-07-13T05:38:25;17.61;;;5.5;;
61675;SDS011;47574;52.090;5.244;2023-07-13T05:40:01;21.9;;;5.7;;
61675;SDS011;47574;52.090;5.244;2023-07-13T05:41:37;19.41;;;6.0;;
61675;SDS011;47574;52.090;5.244;2023-07-13T05:43:13;18.5;;;6.0;;
61675;SDS011;47574;52.090;5.244;2023-07-13T05:46:28;16.61;;;6.5;;
61675;SDS011;47574;52.090;5.244;2023-07-13T05:48:04;16.61;;;6.5;;
61675;SDS011;47574;52.090;5.244;2023-07-13T05:49:40;19.7;;;5.6;;
61675;SDS011;47574;52.090;5.244;2023-07-13T05:52:52;16.8;;;6.1;;
61675;SDS011;47574;52.090;5.244;2023-07-13T05:54:28;16.8;;;6.1;;
61675;SDS011;47574;52.090;5.244;2023-07-13T05:56:04;15.6;;;6.0;;
61675;SDS011;47574;52.090;5.244;2023-07-13T05:59:17;15.9;;;5.9;;
61675;SDS011;47574;52.090;5.244;2023-07-13T06:00:58;16.4;;;6.3;;
61675;SDS011;47574;52.090;5.244;2023-07-13T06:02:36;20.6;;;6.4;;
61675;SDS011;47574;52.090;5.244;2023-07-13T06:04:12;16.11;;;6.1;;
61675;SDS011;47574;52.090;5.244;2023-07-13T06:07:24;22.0;;;6.2;;
61675;SDS011;47574;52.090;5.244;2023-07-13T06:09:01;16.2;;;5.9;;
61675;SDS011;47574;52.090;5.244;2023-07-13T06:10:38;17.5;;;6.2;;
61675;SDS011;47574;52.090;5.244;2023-07-13T06:13:50;20.6;;;6.9;;
61675;SDS011;47574;52.090;5.244;2023-07-13T06:15:27;17.41;;;6.4;;
61675;SDS011;47574;52.090;5.244;2023-07-13T06:17:03;15.8;;;6.3;;
61675;SDS011;47574;52.090;5.244;2023-07-13T06:18:40;18.91;;;7.2;;
61675;SDS011;47574;52.090;5.244;2023-07-13T06:21:54;18.2;;;6.9;;
61675;SDS011;47574;52.090;5.244;2023-07-13T06:23:30;19.0;;;6.9;;
61675;SDS011;47574;52.090;5.244;2023-07-13T06:25:06;16.5;;;6.7;;
61675;SDS011;47574;52.090;5.244;2023-07-13T06:28:19;16.7;;;7.0;;
61675;SDS011;47574;52.090;5.244;2023-07-13T06:29:55;15.2;;;7.5;;
61675;SDS011;47574;52.090;5.244;2023-07-13T06:31:31;20.41;;;7.3;;
61675;SDS011;47574;52.090;5.244;2023-07-13T06:34:43;20.41;;;8.6;;
61675;SDS011;47574;52.090;5.244;2023-07-13T06:36:19;21.6;;;7.4;;
61675;SDS011;47574;52.090;5.244;2023-07-13T06:37:55;18.2;;;7.7;;
61675;SDS011;47574;52.090;5.244;2023-07-13T06:41:08;23.1;;;8.2;;
61675;SDS011;47574;52.090;5.244;2023-07-13T06:42:45;18.91;;;8.9;;
61675;SDS011;47574;52.090;5.244;2023-07-13T06:44:21;19.91;;;9.1;;
61675;SDS011;47574;52.090;5.244;2023-07-13T06:45:57;21.8;;;8.6;;
61675;SDS011;47574;52.090;5.244;2023-07-13T06:49:10;20.3;;;9.0;;
61675;SDS011;47574;52.090;5.244;2023-07-13T06:50:47;20.7;;;8.81;;
61675;SDS011;47574;52.090;5.244;2023-07-13T06:52:24;21.2;;;9.1;;
61675;SDS011;47574;52.090;5.244;2023-07-13T06:55:37;22.6;;;10.21;;
61675;SDS011;47574;52.090;5.244;2023-07-13T06:57:14;20.0;;;9.5;;
61675;SDS011;47574;52.090;5.244;2023-07-13T06:58:50;19.41;;;9.21;;
61675;SDS011;47574;52.090;5.244;2023-07-13T07:02:02;25.9;;;9.5;;
61675;SDS011;47574;52.090;5.244;2023-07-13T07:03:39;16.0;;;8.81;;
61675;SDS011;47574;52.090;5.244;2023-07-13T07:05:15;16.4;;;8.4;;
61675;SDS011;47574;52.090;5.244;2023-07-13T07:06:52;21.8;;;9.71;;
61675;SDS011;47574;52.090;5.244;2023-07-13T07:10:04;18.11;;;8.9;;
61675;SDS011;47574;52.090;5.244;2023-07-13T07:11:41;20.41;;;9.4;;
61675;SDS011;47574;52.090;5.244;2023-07-13T07:13:18;20.8;;;9.4;;
61675;SDS011;47574;52.090;5.244;2023-07-13T07:16:30;18.91;;;8.71;;
61675;SDS011;47574;52.090;5.244;2023-07-13T07:18:07;20.3;;;9.21;;
61675;SDS011;47574;52.090;5.244;2023-07-13T07:19:43;22.3;;;10.1;;
61675;SDS011;47574;52.090;5.244;2023-07-13T07:22:55;24.6;;;10.1;;
61675;SDS011;47574;52.090;5.244;2023-07-13T07:24:31;20.7;;;8.81;;
61675;SDS011;47574;52.090;5.244;2023-07-13T07:26:07;21.5;;;8.81;;
61675;SDS011;47574;52.090;5.244;2023-07-13T07:27:44;20.8;;;9.0;;
61675;SDS011;47574;52.090;5.244;2023-07-13T07:30:57;19.3;;;9.31;;
61675;SDS011;47574;52.090;5.244;2023-07-13T07:32:34;22.6;;;9.21;;
61675;SDS011;47574;52.090;5.244;2023-07-13T07:34:10;22.2;;;10.0;;
61675;SDS011;47574;52.090;5.244;2023-07-13T07:37:22;20.41;;;9.0;;
61675;SDS011;47574;52.090;5.244;2023-07-13T07:38:59;23.2;;;9.81;;
61675;SDS011;47574;52.090;5.244;2023-07-13T07:40:36;20.11;;;9.0;;
61675;SDS011;47574;52.090;5.244;2023-07-13T07:43:49;26.7;;;9.81;;
61675;SDS011;47574;52.090;5.244;2023-07-13T07:45:26;22.3;;;9.71;;
61675;SDS011;47574;52.090;5.244;2023-07-13T07:47:02;18.7;;;8.9;;
61675;SDS011;47574;52.090;5.244;2023-07-13T07:48:39;18.7;;;7.8;;
61675;SDS011;47574;52.090;5.244;2023-07-13T07:51:51;17.61;;;7.9;;
61675;SDS011;47574;52.090;5.244;2023-07-13T07:53:28;15.9;;;7.8;;
61675;SDS011;47574;52.090;5.244;2023-07-13T07:55:05;17.2;;;8.0;;
61675;SDS011;47574;52.090;5.244;2023-07-13T07:58:20;18.11;;;7.7;;
61675;SDS011;47574;52.090;5.244;2023-07-13T07:59:56;18.5;;;8.71;;
61675;SDS011;47574;52.090;5.244;2023-07-13T08:01:32;18.7;;;8.81;;
61675;SDS011;47574;52.090;5.244;2023-07-13T08:04:46;17.7;;;7.6;;
61675;SDS011;47574;52.090;5.244;2023-07-13T08:06:22;16.8;;;8.0;;
61675;SDS011;47574;52.090;5.244;2023-07-13T08:08:00;17.8;;;7.8;;
61675;SDS011;47574;52.090;5.244;2023-07-13T08:09:36;17.7;;;7.4;;
61675;SDS011;47574;52.090;5.244;2023-07-13T08:12:48;14.0;;;6.7;;
61675;SDS011;47574;52.090;5.244;2023-07-13T08:14:24;15.8;;;6.8;;
61675;SDS011;47574;52.090;5.244;2023-07-13T08:16:01;19.3;;;6.6;;
61675;SDS011;47574;52.090;5.244;2023-07-13T08:19:17;15.0;;;6.0;;
61675;SDS011;47574;52.090;5.244;2023-07-13T08:20:53;15.6;;;6.5;;
61675;SDS011;47574;52.090;5.244;2023-07-13T08:22:29;13.2;;;6.1;;
61675;SDS011;47574;52.090;5.244;2023-07-13T08:25:42;10.3;;;5.7;;
61675;SDS011;47574;52.090;5.244;2023-07-13T08:27:27;14.5;;;5.5;;
61675;SDS011;47574;52.090;5.244;2023-07-13T08:29:04;13.7;;;5.7;;
61675;SDS011;47574;52.090;5.244;2023-07-13T08:30:40;10.3;;;4.5;;
61675;SDS011;47574;52.090;5.244;2023-07-13T08:33:55;14.1;;;4.2;;
61675;SDS011;47574;52.090;5.244;2023-07-13T08:35:31;6.6;;;3.4;;
61675;SDS011;47574;52.090;5.244;2023-07-13T08:37:07;3.2;;;2.0;;
61675;SDS011;47574;52.090;5.244;2023-07-13T08:40:23;4.0;;;1.8;;
61675;SDS011;47574;52.090;5.244;2023-07-13T08:42:01;4.5;;;2.21;;
61675;SDS011;47574;52.090;5.244;2023-07-13T08:43:47;5.5;;;2.0;;
61675;SDS011;47574;52.090;5.244;2023-07-13T08:45:34;4.2;;;2.21;;
61675;SDS011;47574;52.090;5.244;2023-07-13T08:47:18;3.0;;;2.0;;
61675;SDS011;47574;52.090;5.244;2023-07-13T08:50:43;3.1;;;1.9;;
61675;SDS011;47574;52.090;5.244;2023-07-13T08:52:34;6.0;;;2.31;;
61675;SDS011;47574;52.090;5.244;2023-07-13T08:54:18;5.4;;;2.31;;
61675;SDS011;47574;52.090;5.244;2023-07-13T08:55:59;5.8;;;2.4;;
61675;SDS011;47574;52.090;5.244;2023-07-13T08:59:17;6.5;;;2.4;;
61675;SDS011;47574;52.090;5.244;2023-07-13T09:00:59;4.1;;;2.5;;
61675;SDS011;47574;52.090;5.244;2023-07-13T09:02:45;8.4;;;2.6;;
61675;SDS011;47574;52.090;5.244;2023-07-13T09:04:29;7.8;;;2.9;;
61675;SDS011;47574;52.090;5.244;2023-07-13T09:06:10;5.4;;;2.5;;
61675;SDS011;47574;52.090;5.244;2023-07-13T09:09:48;6.0;;;2.7;;
61675;SDS011;47574;52.090;5.244;2023-07-13T09:11:47;7.7;;;2.7;;
61675;SDS011;47574;52.090;5.244;2023-07-13T09:13:31;5.4;;;2.6;;
61675;SDS011;47574;52.090;5.244;2023-07-13T09:15:21;5.9;;;2.8;;
61675;SDS011;47574;52.090;5.244;2023-07-13T09:17:04;4.7;;;2.6;;
61675;SDS011;47574;52.090;5.244;2023-07-13T09:18:48;6.6;;;2.9;;
61675;SDS011;47574;52.090;5.244;2023-07-13T09:22:13;3.6;;;2.5;;
61675;SDS011;47574;52.090;5.244;2023-07-13T09:23:56;6.8;;;2.7;;
61675;SDS011;47574;52.090;5.244;2023-07-13T09:25:59;6.9;;;3.2;;
61675;SDS011;47574;52.090;5.244;2023-07-13T09:27:43;6.3;;;2.7;;
61675;SDS011;47574;52.090;5.244;2023-07-13T09:29:24;5.9;;;2.8;;
61675;SDS011;47574;52.090;5.244;2023-07-13T09:32:50;5.9;;;2.9;;
61675;SDS011;47574;52.090;5.244;2023-07-13T09:34:28;6.5;;;2.5;;
61675;SDS011;47574;52.090;5.244;2023-07-13T09:36:15;4.3;;;2.31;;
61675;SDS011;47574;52.090;5.244;2023-07-13T09:38:02;5.2;;;2.21;;
61675;SDS011;47574;52.090;5.244;2023-07-13T09:39:46;4.0;;;2.6;;
61675;SDS011;47574;52.090;5.244;2023-07-13T09:43:10;5.0;;;2.31;;
61675;SDS011;47574;52.090;5.244;2023-07-13T09:44:51;6.2;;;2.21;;
61675;SDS011;47574;52.090;5.244;2023-07-13T09:46:29;5.5;;;2.4;;
61675;SDS011;47574;52.090;5.244;2023-07-13T09:48:07;3.5;;;2.1;;
61675;SDS011;47574;52.090;5.244;2023-07-13T09:51:31;4.41;;;2.0;;
61675;SDS011;47574;52.090;5.244;2023-07-13T09:53:11;4.91;;;2.4;;
61675;SDS011;47574;52.090;5.244;2023-07-13T09:54:49;5.4;;;2.21;;
61675;SDS011;47574;52.090;5.244;2023-07-13T09:56:28;5.3;;;2.31;;
61675;SDS011;47574;52.090;5.244;2023-07-13T09:59:48;7.2;;;2.4;;
61675;SDS011;47574;52.090;5.244;2023-07-13T10:01:31;3.6;;;2.31;;
61675;SDS011;47574;52.090;5.244;2023-07-13T10:03:16;8.81;;;2.9;;
61675;SDS011;47574;52.090;5.244;2023-07-13T10:04:55;4.61;;;2.6;;
61675;SDS011;47574;52.090;5.244;2023-07-13T10:08:18;5.0;;;2.7;;
61675;SDS011;47574;52.090;5.244;2023-07-13T10:09:58;5.11;;;2.7;;
61675;SDS011;47574;52.090;5.244;2023-07-13T10:11:37;4.0;;;2.5;;
61675;SDS011;47574;52.090;5.244;2023-07-13T10:13:33;4.3;;;2.21;;
61675;SDS011;47574;52.090;5.244;2023-07-13T10:15:13;5.9;;;2.7;;
61675;SDS011;47574;52.090;5.244;2023-07-13T10:18:39;4.5;;;2.4;;
61675;SDS011;47574;52.090;5.244;2023-07-13T10:20:20;6.6;;;2.7;;
61675;SDS011;47574;52.090;5.244;2023-07-13T10:21:58;7.7;;;3.2;;
61675;SDS011;47574;52.090;5.244;2023-07-13T10:23:37;7.1;;;3.2;;
61675;SDS011;47574;52.090;5.244;2023-07-13T10:26:55;6.1;;;2.8;;
61675;SDS011;47574;52.090;5.244;2023-07-13T10:28:51;4.2;;;2.21;;
61675;SDS011;47574;52.090;5.244;2023-07-13T10:30:31;3.7;;;2.21;;
61675;SDS011;47574;52.090;5.244;2023-07-13T10:32:14;5.6;;;2.31;;
61675;SDS011;47574;52.090;5.244;2023-07-13T10:35:28;4.61;;;2.31;;
61675;SDS011;47574;52.090;5.244;2023-07-13T10:37:06;5.9;;;2.4;;
61675;SDS011;47574;52.090;5.244;2023-07-13T10:38:52;3.6;;;2.0;;
61675;SDS011;47574;52.090;5.244;2023-07-13T10:40:32;3.6;;;2.1;;
61675;SDS011;47574;52.090;5.244;2023-07-13T10:44:10;5.3;;;2.0;;
61675;SDS011;47574;52.090;5.244;2023-07-13T10:45:55;3.9;;;2.0;;
61675;SDS011;47574;52.090;5.244;2023-07-13T10:47:32;2.5;;;1.9;;
61675;SDS011;47574;52.090;5.244;2023-07-13T10:49:09;2.8;;;1.7;;
61675;SDS011;47574;52.090;5.244;2023-07-13T10:50:49;3.1;;;1.9;;
61675;SDS011;47574;52.090;5.244;2023-07-13T10:54:26;4.2;;;1.8;;
61675;SDS011;47574;52.090;5.244;2023-07-13T10:56:06;2.7;;;1.6;;
61675;SDS011;47574;52.090;5.244;2023-07-13T10:57:59;2.21;;;1.8;;
61675;SDS011;47574;52.090;5.244;2023-07-13T10:59:37;4.0;;;2.1;;
61675;SDS011;47574;52.090;5.244;2023-07-13T11:01:14;3.1;;;2.21;;
61675;SDS011;47574;52.090;5.244;2023-07-13T11:04:39;3.4;;;2.21;;
61675;SDS011;47574;52.090;5.244;2023-07-13T11:06:28;3.4;;;2.21;;
61675;SDS011;47574;52.090;5.244;2023-07-13T11:08:13;7.8;;;2.6;;
61675;SDS011;47574;52.090;5.244;2023-07-13T11:09:56;5.7;;;2.6;;
61675;SDS011;47574;52.090;5.244;2023-07-13T11:11:36;5.2;;;2.9;;
61675;SDS011;47574;52.090;5.244;2023-07-13T11:15:31;6.5;;;2.7;;
61675;SDS011;47574;52.090;5.244;2023-07-13T11:17:24;5.2;;;2.7;;
61675;SDS011;47574;52.090;5.244;2023-07-13T11:19:28;4.1;;;2.4;;
61675;SDS011;47574;52.090;5.244;2023-07-13T11:21:17;4.91;;;2.7;;
61675;SDS011;47574;52.090;5.244;2023-07-13T11:23:07;4.8;;;2.5;;
61675;SDS011;47574;52.090;5.244;2023-07-13T11:24:58;7.4;;;3.2;;
61675;SDS011;47574;52.090;5.244;2023-07-13T11:26:38;8.0;;;3.7;;
61675;SDS011;47574;52.090;5.244;2023-07-13T11:28:18;8.31;;;3.6;;
61675;SDS011;47574;52.090;5.244;2023-07-13T11:32:00;7.5;;;3.4;;
61675;SDS011;47574;52.090;5.244;2023-07-13T11:33:59;6.2;;;3.6;;
61675;SDS011;47574;52.090;5.244;2023-07-13T11:35:37;6.5;;;3.6;;
61675;SDS011;47574;52.090;5.244;2023-07-13T11:37:19;6.7;;;3.7;;
61675;SDS011;47574;52.090;5.244;2023-07-13T11:39:02;9.71;;;4.61;;
61675;SDS011;47574;52.090;5.244;2023-07-13T11:42:20;7.1;;;3.6;;
61675;SDS011;47574;52.090;5.244;2023-07-13T11:44:02;6.2;;;3.9;;
61675;SDS011;47574;52.090;5.244;2023-07-13T11:45:43;7.8;;;4.2;;
61675;SDS011;47574;52.090;5.244;2023-07-13T11:47:21;7.6;;;3.9;;
61675;SDS011;47574;52.090;5.244;2023-07-13T11:50:35;9.31;;;3.8;;
61675;SDS011;47574;52.090;5.244;2023-07-13T11:52:11;7.7;;;3.7;;
61675;SDS011;47574;52.090;5.244;2023-07-13T11:53:51;6.3;;;3.9;;
61675;SDS011;47574;52.090;5.244;2023-07-13T11:55:29;6.0;;;3.6;;
61675;SDS011;47574;52.090;5.244;2023-07-13T11:59:04;6.0;;;3.5;;
61675;SDS011;47574;52.090;5.244;2023-07-13T12:00:43;6.9;;;3.3;;
61675;SDS011;47574;52.090;5.244;2023-07-13T12:02:23;6.6;;;3.3;;
61675;SDS011;47574;52.090;5.244;2023-07-13T12:04:06;10.21;;;3.4;;
61675;SDS011;47574;52.090;5.244;2023-07-13T12:07:35;7.5;;;3.2;;
61675;SDS011;47574;52.090;5.244;2023-07-13T12:09:13;5.0;;;3.0;;
61675;SDS011;47574;52.090;5.244;2023-07-13T12:10:56;5.7;;;2.7;;
61675;SDS011;47574;52.090;5.244;2023-07-13T12:12:40;4.91;;;2.5;;
61675;SDS011;47574;52.090;5.244;2023-07-13T12:14:24;5.6;;;2.8;;
61675;SDS011;47574;52.090;5.244;2023-07-13T12:17:36;7.0;;;2.4;;
61675;SDS011;47574;52.090;5.244;2023-07-13T12:19:15;5.4;;;2.4;;
61675;SDS011;47574;52.090;5.244;2023-07-13T12:20:55;6.5;;;2.4;;
61675;SDS011;47574;52.090;5.244;2023-07-13T12:24:13;4.91;;;2.6;;
61675;SDS011;47574;52.090;5.244;2023-07-13T12:25:52;6.9;;;2.9;;
61675;SDS011;47574;52.090;5.244;2023-07-13T12:27:28;6.8;;;2.31;;
61675;SDS011;47574;52.090;5.244;2023-07-13T12:29:05;5.9;;;2.4;;
61675;SDS011;47574;52.090;5.244;2023-07-13T12:32:25;5.7;;;2.31;;
61675;SDS011;47574;52.090;5.244;2023-07-13T12:34:03;4.0;;;2.1;;
61675;SDS011;47574;52.090;5.244;2023-07-13T12:35:45;5.8;;;2.31;;
61675;SDS011;47574;52.090;5.244;2023-07-13T12:37:25;4.41;;;2.1;;
61675;SDS011;47574;52.090;5.244;2023-07-13T12:40:49;4.61;;;2.4;;
61675;SDS011;47574;52.090;5.244;2023-07-13T12:42:27;3.5;;;2.5;;
61675;SDS011;47574;52.090;5.244;2023-07-13T12:44:09;2.7;;;2.0;;
61675;SDS011;47574;52.090;5.244;2023-07-13T12:45:55;5.0;;;2.4;;
61675;SDS011;47574;52.090;5.244;2023-07-13T12:49:16;2.4;;;2.21;;
61675;SDS011;47574;52.090;5.244;2023-07-13T12:51:00;4.91;;;3.3;;